createdAt,value
2018-04-22T00:02:06.912Z,11.00
2018-04-22T00:05:16.404Z,11.10
2018-04-22T00:08:26.604Z,11.10
2018-04-22T00:11:35.911Z,11.00
2018-04-22T00:14:45.364Z,11.00
2018-04-22T00:17:54.682Z,11.00
2018-04-22T00:21:03.995Z,10.80
2018-04-22T00:24:13.464Z,10.80
2018-04-22T00:27:23.402Z,10.70
2018-04-22T00:30:32.890Z,10.50
2018-04-22T00:33:42.561Z,10.60
2018-04-22T00:36:52.018Z,10.40
2018-04-22T00:40:02.111Z,10.30
2018-04-22T00:43:11.460Z,10.20
2018-04-22T00:46:21.233Z,10.10
2018-04-22T00:49:31.621Z,10.20
2018-04-22T00:52:41.699Z,10.30
2018-04-22T00:55:51.160Z,10.40
2018-04-22T00:59:01.400Z,10.40
2018-04-22T01:02:10.714Z,10.30
2018-04-22T01:05:19.999Z,10.70
2018-04-22T01:08:29.392Z,10.50
2018-04-22T01:11:38.889Z,10.30
2018-04-22T01:14:49.122Z,10.60
2018-04-22T01:17:59.277Z,10.50
2018-04-22T01:21:08.676Z,10.40
2018-04-22T01:24:18.778Z,10.40
2018-04-22T01:27:28.464Z,10.30
2018-04-22T01:30:37.937Z,10.50
2018-04-22T01:33:47.650Z,10.20
2018-04-22T01:36:56.920Z,10.30
2018-04-22T01:40:06.721Z,10.10
2018-04-22T01:43:16.892Z,9.90
2018-04-22T01:46:26.608Z,9.60
2018-04-22T01:49:36.852Z,9.50
2018-04-22T01:52:46.400Z,9.60
2018-04-22T01:55:55.805Z,9.40
2018-04-22T01:59:05.669Z,9.40
2018-04-22T02:02:15.861Z,9.50
2018-04-22T02:05:25.504Z,9.60
2018-04-22T02:08:34.869Z,9.70
2018-04-22T02:11:44.287Z,9.80
2018-04-22T02:14:53.797Z,9.80
2018-04-22T02:18:03.559Z,9.80
2018-04-22T02:21:12.912Z,9.80
2018-04-22T02:24:22.919Z,9.60
2018-04-22T02:27:32.379Z,9.50
2018-04-22T02:30:42.155Z,9.50
2018-04-22T02:33:51.457Z,9.50
2018-04-22T02:37:01.540Z,9.30
2018-04-22T02:40:10.917Z,9.20
2018-04-22T02:43:22.045Z,9.30
2018-04-22T02:46:31.767Z,9.30
2018-04-22T02:49:41.103Z,9.40
2018-04-22T02:52:51.915Z,9.40
2018-04-22T02:56:02.005Z,9.40
2018-04-22T02:59:11.781Z,9.40
2018-04-22T03:02:21.860Z,9.60
2018-04-22T03:05:32.116Z,9.60
2018-04-22T03:08:42.180Z,9.40
2018-04-22T03:11:51.492Z,9.70
2018-04-22T03:15:00.761Z,9.40
2018-04-22T03:18:10.229Z,9.50
2018-04-22T03:21:19.533Z,9.40
2018-04-22T03:24:28.861Z,9.20
2018-04-22T03:27:38.321Z,9.10
2018-04-22T03:30:48.102Z,8.90
2018-04-22T03:33:58.250Z,9.00
2018-04-22T03:37:08.435Z,9.10
2018-04-22T03:40:18.567Z,9.20
2018-04-22T03:43:28.020Z,9.10
2018-04-22T03:46:38.232Z,9.00
2018-04-22T03:49:48.444Z,9.00
2018-04-22T03:52:57.825Z,8.90
2018-04-22T03:56:07.644Z,9.10
2018-04-22T03:59:17.773Z,9.10
2018-04-22T04:02:27.542Z,9.00
2018-04-22T04:05:37.636Z,8.90
2018-04-22T04:08:47.055Z,9.00
2018-04-22T04:11:56.475Z,8.90
2018-04-22T04:15:06.328Z,8.80
2018-04-22T04:22:35.177Z,9.00
2018-04-22T04:26:02.158Z,9.00
2018-04-22T04:29:11.342Z,9.10
2018-04-22T04:32:20.907Z,9.40
2018-04-22T04:35:31.099Z,9.30
2018-04-22T04:38:41.643Z,9.50
2018-04-22T04:41:51.341Z,9.80
2018-04-22T04:45:01.394Z,9.90
2018-04-22T04:48:10.935Z,10.30
2018-04-22T04:51:21.579Z,10.30
2018-04-22T04:54:31.828Z,10.40
2018-04-22T04:57:41.688Z,10.50
2018-04-22T05:00:51.397Z,10.60
2018-04-22T05:04:00.664Z,10.80
2018-04-22T05:07:10.506Z,10.90
2018-04-22T05:10:19.879Z,11.00
2018-04-22T05:13:30.138Z,11.20
2018-04-22T05:16:41.057Z,11.10
2018-04-22T05:19:51.256Z,11.20
2018-04-22T05:23:00.710Z,11.10
2018-04-22T05:26:10.798Z,11.30
2018-04-22T05:29:21.121Z,11.40
2018-04-22T05:32:31.156Z,11.50
2018-04-22T05:35:40.848Z,11.80
2018-04-22T05:38:50.765Z,12.00
2018-04-22T05:42:00.865Z,12.20
2018-04-22T05:45:10.176Z,12.30
2018-04-22T05:48:19.578Z,12.60
2018-04-22T05:51:29.815Z,12.70
2018-04-22T05:54:39.127Z,12.60
2018-04-22T05:57:49.261Z,12.50
2018-04-22T06:00:59.332Z,12.60
2018-04-22T06:04:09.075Z,12.60
2018-04-22T06:07:18.423Z,12.70
2018-04-22T06:10:28.636Z,12.80
2018-04-22T06:13:37.888Z,12.90
2018-04-22T06:16:48.064Z,13.10
2018-04-22T06:19:57.495Z,13.10
2018-04-22T06:23:06.888Z,13.30
2018-04-22T06:26:17.151Z,13.50
2018-04-22T06:29:26.567Z,13.60
2018-04-22T06:32:36.386Z,14.10
2018-04-22T06:35:45.747Z,14.00
2018-04-22T06:38:55.432Z,14.40
2018-04-22T06:42:04.778Z,14.70
2018-04-22T06:45:14.891Z,15.10
2018-04-22T06:48:25.173Z,15.60
2018-04-22T06:51:35.309Z,15.90
2018-04-22T06:54:45.464Z,16.00
2018-04-22T06:57:55.553Z,16.00
2018-04-22T07:01:05.760Z,16.20
2018-04-22T07:04:15.067Z,16.30
2018-04-22T07:07:24.466Z,16.00
2018-04-22T07:10:33.998Z,15.90
2018-04-22T07:13:43.631Z,16.20
2018-04-22T07:16:52.948Z,16.50
2018-04-22T07:20:03.172Z,16.50
2018-04-22T07:23:12.543Z,16.70
2018-04-22T07:26:22.648Z,16.80
2018-04-22T07:29:32.032Z,17.10
2018-04-22T07:32:41.956Z,17.20
2018-04-22T07:35:51.331Z,17.40
2018-04-22T07:39:01.424Z,17.50
2018-04-22T07:42:10.787Z,17.90
2018-04-22T07:45:20.465Z,17.90
2018-04-22T07:48:29.784Z,18.10
2018-04-22T07:51:39.943Z,18.20
2018-04-22T07:54:49.441Z,18.40
2018-04-22T07:57:59.540Z,18.50
2018-04-22T08:01:10.429Z,18.60
2018-04-22T08:04:19.923Z,18.80
2018-04-22T08:07:29.980Z,18.90
2018-04-22T08:10:40.097Z,18.60
2018-04-22T08:13:49.516Z,18.70
2018-04-22T08:16:59.031Z,19.50
2018-04-22T08:20:08.347Z,19.30
2018-04-22T08:23:18.217Z,19.50
2018-04-22T08:26:27.601Z,19.90
2018-04-22T08:29:37.743Z,20.00
2018-04-22T08:32:47.450Z,20.00
2018-04-22T08:35:58.049Z,20.30
2018-04-22T08:39:08.249Z,20.60
2018-04-22T08:42:18.437Z,20.90
2018-04-22T08:45:27.921Z,21.10
2018-04-22T08:48:37.428Z,21.30
2018-04-22T08:51:47.689Z,21.20
2018-04-22T08:54:57.867Z,21.10
2018-04-22T08:58:08.017Z,21.60
2018-04-22T09:01:17.326Z,21.60
2018-04-22T09:04:27.048Z,21.90
2018-04-22T09:07:36.327Z,23.20
2018-04-22T09:10:45.873Z,23.80
2018-04-22T09:13:55.780Z,25.10
2018-04-22T09:17:05.520Z,24.10
2018-04-22T09:20:15.383Z,24.00
2018-04-22T09:23:25.499Z,24.20
2018-04-22T09:26:34.703Z,24.30
2018-04-22T09:29:44.112Z,24.60
2018-04-22T09:32:53.509Z,24.10
2018-04-22T09:36:03.007Z,24.20
2018-04-22T09:39:12.601Z,25.10
2018-04-22T09:42:21.769Z,26.10
2018-04-22T09:45:32.120Z,26.90
2018-04-22T09:48:42.276Z,26.10
2018-04-22T09:51:52.485Z,26.10
2018-04-22T09:55:01.824Z,26.30
2018-04-22T09:58:11.493Z,26.20
2018-04-22T10:01:20.840Z,25.70
2018-04-22T10:08:06.927Z,27.00
2018-04-22T10:11:16.397Z,26.10
2018-04-22T10:14:25.785Z,26.90
2018-04-22T10:17:35.406Z,26.70
2018-04-22T10:20:45.296Z,26.20
2018-04-22T10:23:54.649Z,27.30
2018-04-22T10:27:04.179Z,28.00
2018-04-22T10:30:13.607Z,27.20
2018-04-22T10:33:23.094Z,26.70
2018-04-22T10:36:33.296Z,27.40
2018-04-22T10:39:43.196Z,27.60
2018-04-22T10:42:52.622Z,28.80
2018-04-22T10:46:02.190Z,28.00
2018-04-22T10:49:11.592Z,27.50
2018-04-22T10:52:21.479Z,27.80
2018-04-22T10:55:30.911Z,29.20
2018-04-22T10:58:40.358Z,30.70
2018-04-22T11:01:49.655Z,29.10
2018-04-22T11:04:59.981Z,29.10
2018-04-22T11:08:09.443Z,29.10
2018-04-22T11:11:19.615Z,29.10
2018-04-22T11:14:28.963Z,28.10
2018-04-22T11:17:38.464Z,28.20
2018-04-22T11:20:48.561Z,26.60
2018-04-22T11:23:57.917Z,27.90
2018-04-22T11:27:07.259Z,28.80
2018-04-22T11:30:16.612Z,27.60
2018-04-22T11:33:26.051Z,27.30
2018-04-22T11:36:35.541Z,27.40
2018-04-22T11:39:44.769Z,27.00
2018-04-22T11:42:54.206Z,27.20
2018-04-22T11:46:04.442Z,26.80
2018-04-22T11:49:13.768Z,27.10
2018-04-22T11:52:23.128Z,27.60
2018-04-22T11:55:32.579Z,27.90
2018-04-22T11:58:42.839Z,29.10
2018-04-22T12:01:52.334Z,27.90
2018-04-22T12:05:01.866Z,28.80
2018-04-22T12:08:11.293Z,29.70
2018-04-22T12:11:20.731Z,29.00
2018-04-22T12:14:30.884Z,29.90
2018-04-22T12:17:40.240Z,28.50
2018-04-22T12:20:49.679Z,27.60
2018-04-22T12:23:59.186Z,27.70
2018-04-22T12:27:09.172Z,28.30
2018-04-22T12:30:19.328Z,29.20
2018-04-22T12:33:28.791Z,28.10
2018-04-22T12:36:38.989Z,29.90
2018-04-22T12:39:49.047Z,30.70
2018-04-22T12:42:58.376Z,30.60
2018-04-22T12:46:07.869Z,29.60
2018-04-22T12:49:17.655Z,29.50
2018-04-22T12:52:27.130Z,30.20
2018-04-22T12:55:37.425Z,30.00
2018-04-22T12:58:46.724Z,30.20
2018-04-22T13:01:56.105Z,30.10
2018-04-22T13:05:05.385Z,30.90
2018-04-22T13:08:14.743Z,30.60
2018-04-22T13:11:24.051Z,31.10
2018-04-22T13:14:33.499Z,31.00
2018-04-22T13:17:43.415Z,31.80
2018-04-22T13:20:52.951Z,31.80
2018-04-22T13:24:02.433Z,31.60
2018-04-22T13:27:11.920Z,31.60
2018-04-22T13:30:21.424Z,31.10
2018-04-22T13:33:30.802Z,31.10
2018-04-22T13:36:40.281Z,31.00
2018-04-22T13:39:50.553Z,31.80
2018-04-22T13:42:59.854Z,31.80
2018-04-22T13:46:09.304Z,32.20
2018-04-22T13:49:18.739Z,29.90
2018-04-22T13:52:28.221Z,28.00
2018-04-22T13:55:37.745Z,28.20
2018-04-22T13:58:47.171Z,28.00
2018-04-22T14:01:56.595Z,27.30
2018-04-22T14:05:05.991Z,27.70
2018-04-22T14:08:15.481Z,26.80
2018-04-22T14:11:24.936Z,27.60
2018-04-22T14:14:34.599Z,27.00
2018-04-22T14:17:48.116Z,25.50
2018-04-22T14:20:57.328Z,25.50
2018-04-22T14:24:06.652Z,24.90
2018-04-22T14:27:16.910Z,24.50
2018-04-22T14:30:27.005Z,24.90
2018-04-22T14:33:40.592Z,26.30
2018-04-22T14:36:50.698Z,27.70
2018-04-22T14:39:59.934Z,26.90
2018-04-22T14:43:09.265Z,28.20
2018-04-22T14:46:18.901Z,28.20
2018-04-22T14:49:28.334Z,29.80
2018-04-22T14:52:37.658Z,31.10
2018-04-22T14:55:47.069Z,31.50
2018-04-22T14:58:56.647Z,31.30
2018-04-22T15:02:05.981Z,32.30
2018-04-22T15:05:15.534Z,32.60
2018-04-22T15:08:29.760Z,32.80
2018-04-22T15:11:39.295Z,32.80
2018-04-22T15:14:49.444Z,32.40
2018-04-22T15:17:59.020Z,32.40
2018-04-22T15:21:08.496Z,32.30
2018-04-22T15:24:17.869Z,32.40
2018-04-22T15:27:28.288Z,29.00
2018-04-22T15:30:37.687Z,28.00
2018-04-22T15:33:47.623Z,26.90
2018-04-22T15:36:56.932Z,25.80
2018-04-22T15:40:06.250Z,26.50
2018-04-22T15:43:15.716Z,26.80
2018-04-22T15:46:25.044Z,27.40
2018-04-22T15:49:34.471Z,26.40
2018-04-22T15:52:45.327Z,27.70
2018-04-22T15:55:54.847Z,26.90
2018-04-22T15:59:04.112Z,27.30
2018-04-22T16:02:13.462Z,27.90
2018-04-22T16:05:22.897Z,27.90
2018-04-22T16:08:32.181Z,27.00
2018-04-22T16:11:42.271Z,27.80
2018-04-22T16:14:51.604Z,27.80
2018-04-22T16:18:01.020Z,28.20
2018-04-22T16:21:10.427Z,28.30
2018-04-22T16:24:20.560Z,27.20
2018-04-22T16:27:29.871Z,26.40
2018-04-22T16:30:39.470Z,26.40
2018-04-22T16:33:53.368Z,26.50
2018-04-22T16:37:02.745Z,25.60
2018-04-22T16:40:12.972Z,24.50
2018-04-22T16:43:22.879Z,23.80
2018-04-22T16:46:32.416Z,24.10
2018-04-22T16:49:42.211Z,23.90
2018-04-22T16:52:52.782Z,23.50
2018-04-22T16:56:03.003Z,23.50
2018-04-22T16:59:12.560Z,23.20
2018-04-22T17:02:21.997Z,22.90
2018-04-22T17:05:31.433Z,22.50
2018-04-22T17:08:41.604Z,22.40
2018-04-22T17:11:50.915Z,22.60
2018-04-22T17:15:00.498Z,22.30
2018-04-22T17:18:10.531Z,21.80
2018-04-22T17:21:19.969Z,21.40
2018-04-22T17:24:29.408Z,21.20
2018-04-22T17:27:38.676Z,21.10
2018-04-22T17:30:48.109Z,21.10
2018-04-22T17:33:57.918Z,21.10
2018-04-22T17:37:07.250Z,20.80
2018-04-22T17:40:16.679Z,20.90
2018-04-22T17:43:26.315Z,20.70
2018-04-22T17:46:35.626Z,20.50
2018-04-22T17:49:46.194Z,20.70
2018-04-22T17:52:56.237Z,20.70
2018-04-22T17:56:06.371Z,20.60
2018-04-22T17:59:16.500Z,20.60
2018-04-22T18:02:26.188Z,20.40
2018-04-22T18:05:35.988Z,20.40
2018-04-22T18:08:45.292Z,20.30
2018-04-22T18:11:55.056Z,20.30
2018-04-22T18:15:04.888Z,20.20
2018-04-22T18:18:14.234Z,20.20
2018-04-22T18:21:23.700Z,20.20
2018-04-22T18:24:33.110Z,19.90
2018-04-22T18:27:42.963Z,19.90
2018-04-22T18:30:52.386Z,20.10
2018-04-22T18:34:01.634Z,20.00
2018-04-22T18:37:11.057Z,19.70
2018-04-22T18:40:20.556Z,20.00
2018-04-22T18:43:30.380Z,19.80
2018-04-22T18:46:40.436Z,19.80
2018-04-22T18:49:50.347Z,19.70
2018-04-22T18:53:00.432Z,19.10
2018-04-22T18:56:10.084Z,17.30
2018-04-22T18:59:20.205Z,16.80
2018-04-22T19:02:30.072Z,16.50
2018-04-22T19:05:39.512Z,16.60
2018-04-22T19:08:49.582Z,16.50
2018-04-22T19:11:58.939Z,16.30
2018-04-22T19:15:08.425Z,16.10
2018-04-22T19:18:17.867Z,16.00
2018-04-22T19:21:27.984Z,16.00
2018-04-22T19:24:37.300Z,15.50
2018-04-22T19:27:46.663Z,15.80
2018-04-22T19:30:56.521Z,15.70
2018-04-22T19:34:05.888Z,15.70
2018-04-22T19:37:16.560Z,15.90
2018-04-22T19:40:29.977Z,15.80
2018-04-22T19:43:39.344Z,15.80
2018-04-22T19:46:48.875Z,15.70
2018-04-22T19:49:59.113Z,15.60
2018-04-22T19:53:09.166Z,15.60
2018-04-22T19:56:18.455Z,15.70
2018-04-22T19:59:27.870Z,15.40
2018-04-22T20:02:37.277Z,15.30
2018-04-22T20:05:47.085Z,15.00
2018-04-22T20:08:57.313Z,15.30
2018-04-22T20:12:07.819Z,15.30
2018-04-22T20:15:17.738Z,15.10
2018-04-22T20:18:27.976Z,15.40
2018-04-22T20:21:37.780Z,15.40
2018-04-22T20:24:47.843Z,15.30
2018-04-22T20:27:57.224Z,15.40
2018-04-22T20:31:07.337Z,15.10
2018-04-22T20:34:17.108Z,15.10
2018-04-22T20:37:27.005Z,15.60
2018-04-22T20:40:36.337Z,14.80
2018-04-22T20:43:46.448Z,14.90
2018-04-22T20:46:56.352Z,14.80
2018-04-22T20:50:05.687Z,14.80
2018-04-22T20:53:15.582Z,14.80
2018-04-22T20:56:24.995Z,14.60
2018-04-22T20:59:35.651Z,14.60
2018-04-22T21:02:45.767Z,14.80
2018-04-22T21:05:55.141Z,14.90
2018-04-22T21:09:04.612Z,14.80
2018-04-22T21:12:14.768Z,14.80
2018-04-22T21:15:24.111Z,14.90
2018-04-22T21:18:33.484Z,14.60
2018-04-22T21:21:44.075Z,14.70
2018-04-22T21:24:53.339Z,14.80
2018-04-22T21:28:03.076Z,14.50
2018-04-22T21:31:12.412Z,14.80
2018-04-22T21:34:22.337Z,14.70
2018-04-22T21:37:31.724Z,14.50
2018-04-22T21:40:41.172Z,14.60
2018-04-22T21:43:51.048Z,14.90
2018-04-22T21:47:00.396Z,14.40
2018-04-22T21:50:10.183Z,14.80
2018-04-22T21:53:20.264Z,14.60
2018-04-22T21:56:29.618Z,14.60
2018-04-22T21:59:39.349Z,14.60
2018-04-22T22:02:48.771Z,14.50
2018-04-22T22:05:58.171Z,14.50
2018-04-22T22:09:07.476Z,14.40
2018-04-22T22:12:17.707Z,14.60
2018-04-22T22:15:27.083Z,14.50
2018-04-22T22:18:37.326Z,14.60
2018-04-22T22:21:46.635Z,14.50
2018-04-22T22:24:56.841Z,14.40
2018-04-22T22:28:06.159Z,14.70
2018-04-22T22:31:16.050Z,14.50
2018-04-22T22:34:25.917Z,14.60
2018-04-22T22:37:35.347Z,14.50
2018-04-22T22:40:44.797Z,14.50
2018-04-22T22:43:55.449Z,14.20
2018-04-22T22:47:05.676Z,14.40
2018-04-22T22:50:15.049Z,14.50
2018-04-22T22:53:24.475Z,14.50
2018-04-22T22:56:34.228Z,14.70
2018-04-22T22:59:44.519Z,14.30
2018-04-22T23:02:53.965Z,14.30
2018-04-22T23:06:04.247Z,14.30
2018-04-22T23:09:13.876Z,14.40
2018-04-22T23:12:24.127Z,14.10
2018-04-22T23:15:37.904Z,14.00
2018-04-22T23:18:47.806Z,14.10
2018-04-22T23:21:57.167Z,14.10
2018-04-22T23:25:06.553Z,14.00
2018-04-22T23:28:15.890Z,13.90
2018-04-22T23:31:25.326Z,13.80
2018-04-22T23:34:34.895Z,13.80
2018-04-22T23:37:44.415Z,13.80
2018-04-22T23:40:53.777Z,14.20
2018-04-22T23:44:04.428Z,14.10
2018-04-22T23:47:14.117Z,14.10
2018-04-22T23:50:24.716Z,14.20
2018-04-22T23:53:34.196Z,14.20
2018-04-22T23:56:43.672Z,14.40
2018-04-22T23:59:53.483Z,14.50
